KLRO/LRO METAR and TAF weather

Enter ICAO airport designator
Station Type Date Time Source
KLRO METAR 2019/04/20 18:35 UTC NOAA

KLRO 201835Z AUTO 20017G22KT 10SM SCT046 18/07 A2982 RMK AO2


Station Type Date Time Source
KLRO Decoded METAR 2019/04/20 18:35 UTC NOAA

Station name not available
Apr 20, 2019 - 02:35 PM EDT / 2019.04.20 1835 UTC
Wind: from the SSW (200 degrees) at 20 MPH (17 KT) gusting to 25 MPH (22 KT):0
Visibility: 10 mile(s):0
Sky conditions: partly cloudy
Temperature: 64 F (18 C)
Dew Point: 44 F (7 C)
Relative Humidity: 48%
Pressure (altimeter): 29.82 in. Hg (1009 hPa)
ob: KLRO 201835Z AUTO 20017G22KT 10SM SCT046 18/07 A2982 RMK AO2
cycle: 18

Station Type Date Time Source
KLRO TAF UTC NOAA

Error!

Example: see airport list